Macclesfield, United Kingdom
Current Conditions -  °F | °C
As of 5:50 PM on Tuesday 21 Oct 2014 (Local Time) from EGCC Reporting Station
Moderate Rain Moderate Rain  
Wind Chill: 36°   Ceiling: 2700
Heat Index: 45°   Visibility: 4mi
Dew Point: 39°   Wind: 22mph
Humidity: 81%   Direction: 310°NW
Pressure: 29.88"   Gusts: NA
Location:  53.26°N, 2.13°W
Report Text: EGCC 211650Z 31019KT 7000 RA FEW020TCU BKN027CB BKN040 07/04 Q1012 RERA TEMPO SHRA
Loading
Personal Weather Stations






























Interactive Weather Map New forecast layout! Learn more

10-Day Weather Forecast

Advertisements
Track Severe Weather on mobile